Time;durP1;ratioP1;P1;durP2;ratioP2;P2;SDS_P1;SDS_P2;PMS_P1;PMS_P2;Temp;Humidity;BMP_temperature;BMP_pressure;BME280_temperature;BME280_humidity;BME280_pressure;Samples;Min_cycle;Max_cycle;Signal;HPM_P1;HPM_P2
2022/06/24 00:01:03;;;;;;;;;;;23.40;99.80;;;;;;4346031;33;44087;-79
2022/06/24 00:03:35;;;;;;;;;;;23.30;99.70;;;;;;4345896;33;45582;-79
2022/06/24 00:06:08;;;;;;;;;;;23.30;99.90;;;;;;4346601;33;45080;-78
2022/06/24 00:08:59;;;;;;;;;;;23.30;99.90;;;;;;4333566;33;43345;-79
2022/06/24 00:11:27;;;;;;;;;;;23.30;99.90;;;;;;4333926;33;19993;-76
2022/06/24 00:14:17;;;;;;;;;;;23.30;99.80;;;;;;4346186;33;43490;-79
2022/06/24 00:16:56;;;;;;;;;;;23.30;99.90;;;;;;4346561;33;44391;-77
2022/06/24 00:19:24;;;;;;;;;;;23.30;99.90;;;;;;4346411;33;42819;-78
2022/06/24 00:21:57;;;;;;;;;;;23.20;99.90;;;;;;4345974;33;44196;-77
2022/06/24 00:24:27;;;;;;;;;;;23.20;99.90;;;;;;4346149;33;44583;-77
2022/06/24 00:26:54;;;;;;;;;;;23.20;99.90;;;;;;4332737;33;45676;-77
2022/06/24 00:29:21;;;;;;;;;;;23.20;99.90;;;;;;4332640;33;44184;-77
2022/06/24 00:32:07;;;;;;;;;;;23.20;99.90;;;;;;4332403;33;45772;-77
2022/06/24 00:34:36;;;;;;;;;;;23.20;99.90;;;;;;4332555;33;43712;-77
2022/06/24 00:37:23;;;;;;;;;;;23.20;99.90;;;;;;4332489;33;44654;-77
2022/06/24 00:39:54;;;;;;;;;;;23.20;99.90;;;;;;4345986;33;43436;-77
2022/06/24 00:42:22;;;;;;;;;;;23.20;99.90;;;;;;4346832;33;20036;-78
2022/06/24 00:45:08;;;;;;;;;;;23.20;99.90;;;;;;4332160;33;44302;-77
2022/06/24 00:47:36;;;;;;;;;;;23.20;99.90;;;;;;4346327;33;43265;-77
2022/06/24 00:50:06;;;;;;;;;;;23.20;99.90;;;;;;4332529;33;44846;-77
2022/06/24 00:52:36;;;;;;;;;;;23.10;99.90;;;;;;4332919;33;44707;-77
2022/06/24 00:55:06;;;;;;;;;;;23.10;99.90;;;;;;4345866;33;43895;-77
2022/06/24 00:57:36;;;;;;;;;;;23.10;99.90;;;;;;4345463;33;43086;-77
2022/06/24 01:00:04;;;;;;;;;;;23.10;99.90;;;;;;4345363;33;43284;-77
2022/06/24 01:02:33;;;;;;;;;;;23.10;99.90;;;;;;4331998;33;44318;-77
2022/06/24 01:05:10;;;;;;;;;;;23.10;99.90;;;;;;4332054;33;43186;-76
2022/06/24 01:07:43;;;;;;;;;;;23.00;99.90;;;;;;4345863;33;44412;-77
2022/06/24 01:10:10;;;;;;;;;;;23.00;99.90;;;;;;4345922;33;43939;-77
2022/06/24 01:12:37;;;;;;;;;;;23.00;99.90;;;;;;4332289;33;20048;-77
2022/06/24 01:15:05;;;;;;;;;;;23.00;99.90;;;;;;4345585;33;43817;-79
2022/06/24 01:17:32;;;;;;;;;;;23.00;99.90;;;;;;4332006;33;43725;-77
2022/06/24 01:19:59;;;;;;;;;;;23.00;99.90;;;;;;4345475;33;44073;-78
2022/06/24 01:22:27;;;;;;;;;;;23.00;99.90;;;;;;4331748;33;44692;-76
2022/06/24 01:24:55;;;;;;;;;;;23.00;99.90;;;;;;4332123;33;42030;-77
2022/06/24 01:27:24;;;;;;;;;;;22.90;99.90;;;;;;4332211;33;44009;-77
2022/06/24 01:29:52;;;;;;;;;;;22.90;99.90;;;;;;4332019;33;43965;-77
2022/06/24 01:32:19;;;;;;;;;;;22.90;99.90;;;;;;4345318;33;41944;-77
2022/06/24 01:34:49;;;;;;;;;;;22.90;99.90;;;;;;4345185;33;42079;-77
2022/06/24 01:37:16;;;;;;;;;;;22.90;99.90;;;;;;4345020;33;43188;-78
2022/06/24 01:39:44;;;;;;;;;;;22.90;99.90;;;;;;4345040;33;43924;-77
2022/06/24 01:42:11;;;;;;;;;;;22.90;99.90;;;;;;4331950;33;42171;-77
2022/06/24 01:44:38;;;;;;;;;;;22.90;99.90;;;;;;4332795;33;20005;-77
2022/06/24 01:47:10;;;;;;;;;;;22.90;99.90;;;;;;4332620;33;45924;-77
2022/06/24 01:49:37;;;;;;;;;;;22.90;99.90;;;;;;4331605;33;44939;-77
2022/06/24 01:52:05;;;;;;;;;;;22.90;99.90;;;;;;4331637;33;42051;-77
2022/06/24 01:54:32;;;;;;;;;;;22.80;99.90;;;;;;4331721;33;45078;-77
2022/06/24 01:56:59;;;;;;;;;;;22.80;99.90;;;;;;4344688;33;45509;-77
2022/06/24 01:59:26;;;;;;;;;;;22.80;99.90;;;;;;4344892;33;42748;-77
2022/06/24 02:01:53;;;;;;;;;;;22.80;99.90;;;;;;4331699;33;43723;-77
2022/06/24 02:04:20;;;;;;;;;;;22.80;99.90;;;;;;4331986;33;43471;-77
2022/06/24 02:06:47;;;;;;;;;;;22.90;99.90;;;;;;4331422;33;42916;-78
2022/06/24 02:09:16;;;;;;;;;;;22.80;99.90;;;;;;4344594;33;44495;-77
2022/06/24 02:14:31;;;;;;;;;;;22.80;99.90;;;;;;4345003;33;44146;-77
2022/06/24 02:17:01;;;;;;;;;;;22.80;99.90;;;;;;4331432;33;43999;-77
2022/06/24 02:19:28;;;;;;;;;;;22.80;99.90;;;;;;4331400;33;43054;-77
2022/06/24 02:21:55;;;;;;;;;;;22.80;99.90;;;;;;4331864;33;44629;-77
2022/06/24 02:24:22;;;;;;;;;;;22.80;99.90;;;;;;4347248;33;43171;-77
2022/06/24 02:26:49;;;;;;;;;;;22.80;99.90;;;;;;4334675;33;45633;-77
2022/06/24 02:29:16;;;;;;;;;;;22.80;99.90;;;;;;4347489;33;43038;-77
2022/06/24 02:31:46;;;;;;;;;;;22.80;99.90;;;;;;4347983;33;43486;-77
2022/06/24 02:34:15;;;;;;;;;;;22.80;99.90;;;;;;4334327;33;43693;-77
2022/06/24 02:36:42;;;;;;;;;;;22.80;99.90;;;;;;4348080;33;42992;-77
2022/06/24 02:39:09;;;;;;;;;;;22.80;99.90;;;;;;4334435;33;43864;-77
2022/06/24 02:41:36;;;;;;;;;;;22.80;99.90;;;;;;4347259;33;42996;-77
2022/06/24 02:44:03;;;;;;;;;;;22.80;99.90;;;;;;4334127;33;43878;-77
2022/06/24 02:46:31;;;;;;;;;;;22.80;99.90;;;;;;4347733;33;43659;-78
2022/06/24 02:48:58;;;;;;;;;;;22.80;99.90;;;;;;4347501;33;44207;-77
2022/06/24 02:51:26;;;;;;;;;;;22.80;99.90;;;;;;4334227;33;43242;-77
2022/06/24 02:53:53;;;;;;;;;;;22.80;99.90;;;;;;4334191;33;45208;-77
2022/06/24 02:56:20;;;;;;;;;;;22.80;99.90;;;;;;4347148;33;43320;-77
2022/06/24 02:58:47;;;;;;;;;;;22.70;99.90;;;;;;4347755;33;43013;-77
2022/06/24 03:01:14;;;;;;;;;;;22.80;99.90;;;;;;4347222;33;43202;-77
2022/06/24 03:03:41;;;;;;;;;;;22.70;99.90;;;;;;4333842;33;45782;-77
2022/06/24 03:06:08;;;;;;;;;;;22.70;99.90;;;;;;4346967;33;42727;-77
2022/06/24 03:08:35;;;;;;;;;;;22.70;99.90;;;;;;4347499;33;43990;-77
2022/06/24 03:11:09;;;;;;;;;;;22.70;99.90;;;;;;4334445;33;42851;-77
2022/06/24 03:13:36;;;;;;;;;;;22.70;99.90;;;;;;4347045;33;42951;-77
2022/06/24 03:16:03;;;;;;;;;;;22.70;99.90;;;;;;4346790;33;44697;-77
2022/06/24 03:18:30;;;;;;;;;;;22.60;99.90;;;;;;4347137;33;43181;-77
2022/06/24 03:20:57;;;;;;;;;;;22.70;99.90;;;;;;4347300;33;43951;-76
2022/06/24 03:23:24;;;;;;;;;;;22.70;99.90;;;;;;4346754;32;43199;-77
2022/06/24 03:25:51;;;;;;;;;;;22.60;99.90;;;;;;4346661;33;44176;-77
2022/06/24 03:28:18;;;;;;;;;;;22.60;99.90;;;;;;4347225;33;44720;-77
2022/06/24 03:30:45;;;;;;;;;;;22.60;99.90;;;;;;4333624;33;42921;-77
2022/06/24 03:33:12;;;;;;;;;;;22.60;99.90;;;;;;4347009;33;43378;-78
2022/06/24 03:35:40;;;;;;;;;;;22.60;99.90;;;;;;4333320;33;42539;-77
2022/06/24 03:38:07;;;;;;;;;;;22.60;99.90;;;;;;4333190;33;43630;-77
2022/06/24 03:40:34;;;;;;;;;;;22.60;99.90;;;;;;4346642;33;42745;-77
2022/06/24 03:43:01;;;;;;;;;;;22.50;99.90;;;;;;4333378;33;44415;-77
2022/06/24 03:45:28;;;;;;;;;;;22.60;99.90;;;;;;4346599;33;43879;-77
2022/06/24 03:47:55;;;;;;;;;;;22.50;99.90;;;;;;4346699;33;44919;-77
2022/06/24 03:50:22;;;;;;;;;;;22.50;99.90;;;;;;4333561;33;44194;-77
2022/06/24 03:52:49;;;;;;;;;;;22.50;99.90;;;;;;4333709;33;44268;-78
2022/06/24 03:55:16;;;;;;;;;;;22.50;99.90;;;;;;4346486;33;43202;-78
2022/06/24 03:57:43;;;;;;;;;;;22.50;99.90;;;;;;4333121;33;43278;-78
2022/06/24 04:00:13;;;;;;;;;;;22.40;99.90;;;;;;4333333;33;43032;-78
2022/06/24 04:02:40;;;;;;;;;;;22.50;99.90;;;;;;4332760;33;42708;-77
2022/06/24 04:05:14;;;;;;;;;;;22.40;99.90;;;;;;4346315;33;43923;-78
2022/06/24 04:07:41;;;;;;;;;;;22.40;99.90;;;;;;4346589;33;44773;-79
2022/06/24 04:10:08;;;;;;;;;;;22.40;99.90;;;;;;4333141;33;43029;-78
2022/06/24 04:12:35;;;;;;;;;;;22.40;99.90;;;;;;4333063;33;42934;-77
2022/06/24 04:15:14;;;;;;;;;;;22.30;99.90;;;;;;4332731;33;42958;-77
2022/06/24 04:17:45;;;;;;;;;;;22.30;99.90;;;;;;4346453;33;45508;-77
2022/06/24 04:20:13;;;;;;;;;;;22.30;99.90;;;;;;4346680;33;43930;-79
2022/06/24 04:22:43;;;;;;;;;;;22.30;99.90;;;;;;4332706;33;44356;-77
2022/06/24 04:25:11;;;;;;;;;;;22.30;99.90;;;;;;4346134;33;43155;-78
2022/06/24 04:27:38;;;;;;;;;;;22.30;99.90;;;;;;4333102;33;43046;-78
2022/06/24 04:30:07;;;;;;;;;;;22.30;99.90;;;;;;4333004;33;43791;-78
2022/06/24 04:32:34;;;;;;;;;;;22.30;99.90;;;;;;4346176;33;43913;-77
2022/06/24 04:35:03;;;;;;;;;;;22.30;99.90;;;;;;4345779;33;45783;-78
2022/06/24 04:37:30;;;;;;;;;;;22.20;99.90;;;;;;4345837;33;45881;-78
2022/06/24 04:39:58;;;;;;;;;;;22.20;99.90;;;;;;4332795;33;44061;-78
2022/06/24 04:42:25;;;;;;;;;;;22.20;99.90;;;;;;4332789;33;43926;-80
2022/06/24 04:44:53;;;;;;;;;;;22.20;99.90;;;;;;4332731;33;44786;-78
2022/06/24 04:47:20;;;;;;;;;;;22.20;99.90;;;;;;4331754;33;42854;-79
2022/06/24 04:49:47;;;;;;;;;;;22.20;99.90;;;;;;4345528;33;42757;-79
2022/06/24 04:52:15;;;;;;;;;;;22.20;99.90;;;;;;4345699;33;43926;-78
2022/06/24 04:54:43;;;;;;;;;;;22.10;99.90;;;;;;4345742;33;42670;-77
2022/06/24 04:57:11;;;;;;;;;;;22.10;99.90;;;;;;4332488;33;42662;-78
2022/06/24 04:59:40;;;;;;;;;;;22.10;99.90;;;;;;4345764;33;45813;-79
2022/06/24 05:02:08;;;;;;;;;;;22.10;99.90;;;;;;4332004;33;44140;-79
2022/06/24 05:04:35;;;;;;;;;;;22.10;99.90;;;;;;4332120;33;42821;-79
2022/06/24 05:07:03;;;;;;;;;;;22.00;99.90;;;;;;4332123;33;43861;-80
2022/06/24 05:09:30;;;;;;;;;;;22.00;99.90;;;;;;4345486;33;44003;-77
2022/06/24 05:11:57;;;;;;;;;;;22.00;99.90;;;;;;4331893;33;44846;-77
2022/06/24 05:14:24;;;;;;;;;;;22.00;99.90;;;;;;4345577;33;44070;-79
2022/06/24 05:16:51;;;;;;;;;;;22.00;99.90;;;;;;4331988;33;45295;-79
2022/06/24 05:19:18;;;;;;;;;;;22.00;99.90;;;;;;4331911;33;44207;-78
2022/06/24 05:21:45;;;;;;;;;;;22.00;99.90;;;;;;4345707;33;43173;-78
2022/06/24 05:24:12;;;;;;;;;;;22.00;99.90;;;;;;4345508;33;45766;-79
2022/06/24 05:26:43;;;;;;;;;;;22.00;99.90;;;;;;4345393;33;43312;-81
2022/06/24 05:29:13;;;;;;;;;;;22.00;99.90;;;;;;4345891;33;43511;-78
2022/06/24 05:31:40;;;;;;;;;;;21.90;99.90;;;;;;4331781;33;45419;-80
2022/06/24 05:34:11;;;;;;;;;;;22.00;99.90;;;;;;4332349;33;43305;-79
2022/06/24 05:36:38;;;;;;;;;;;21.90;99.90;;;;;;4345384;33;45729;-80
2022/06/24 05:39:05;;;;;;;;;;;21.90;99.90;;;;;;4345356;33;44207;-80
2022/06/24 05:41:33;;;;;;;;;;;21.90;99.90;;;;;;4345497;33;43912;-80
2022/06/24 05:44:01;;;;;;;;;;;21.90;99.90;;;;;;4331742;33;42627;-80
2022/06/24 05:46:28;;;;;;;;;;;21.90;99.90;;;;;;4344840;33;43961;-80
2022/06/24 05:48:56;;;;;;;;;;;21.90;99.90;;;;;;4345007;33;42669;-80
2022/06/24 05:51:23;;;;;;;;;;;21.90;99.90;;;;;;4345030;33;43271;-81
2022/06/24 05:56:36;;;;;;;;;;;21.90;99.90;;;;;;4345401;33;43339;-81
2022/06/24 05:59:11;;;;;;;;;;;21.90;99.90;;;;;;4336305;33;42492;-81
2022/06/24 06:01:38;;;;;;;;;;;21.80;99.90;;;;;;4336515;33;43951;-81
2022/06/24 06:04:05;;;;;;;;;;;21.80;99.90;;;;;;4336915;33;44476;-81
2022/06/24 06:06:34;;;;;;;;;;;21.80;99.90;;;;;;4336237;33;43196;-81
2022/06/24 06:09:01;;;;;;;;;;;21.80;99.90;;;;;;4336403;33;43706;-81
2022/06/24 06:11:28;;;;;;;;;;;21.80;99.90;;;;;;4349783;32;43861;-81
2022/06/24 06:13:56;;;;;;;;;;;21.80;99.90;;;;;;4336739;33;43232;-82
2022/06/24 06:16:23;;;;;;;;;;;21.80;99.90;;;;;;4336717;33;44093;-81
2022/06/24 06:18:50;;;;;;;;;;;21.80;99.90;;;;;;4336310;33;43502;-82
2022/06/24 06:21:18;;;;;;;;;;;21.80;99.90;;;;;;4336884;33;44225;-83
2022/06/24 06:23:45;;;;;;;;;;;21.80;99.90;;;;;;4336756;33;43647;-82
2022/06/24 06:26:12;;;;;;;;;;;21.80;99.90;;;;;;4336454;33;43256;-82
2022/06/24 06:28:41;;;;;;;;;;;21.80;99.90;;;;;;4336584;33;44172;-81
2022/06/24 06:31:09;;;;;;;;;;;21.80;99.90;;;;;;4336229;33;43150;-81
2022/06/24 06:33:36;;;;;;;;;;;21.80;99.90;;;;;;4349419;33;44223;-83
2022/06/24 06:36:04;;;;;;;;;;;21.70;99.90;;;;;;4336134;33;43620;-82
2022/06/24 06:38:31;;;;;;;;;;;21.70;99.90;;;;;;4336398;33;43251;-82
2022/06/24 06:40:58;;;;;;;;;;;21.80;99.90;;;;;;4349671;33;43452;-82
2022/06/24 06:43:26;;;;;;;;;;;21.80;99.90;;;;;;4336451;33;43795;-84
2022/06/24 06:45:53;;;;;;;;;;;21.80;99.90;;;;;;4336344;33;42549;-82
2022/06/24 06:48:21;;;;;;;;;;;21.80;99.90;;;;;;4336390;33;44224;-83
2022/06/24 06:50:52;;;;;;;;;;;21.70;99.90;;;;;;4336203;33;43412;-82
2022/06/24 06:53:19;;;;;;;;;;;21.70;99.90;;;;;;4349843;33;44731;-82
2022/06/24 06:55:46;;;;;;;;;;;21.70;99.90;;;;;;4336323;33;42711;-83
2022/06/24 06:58:14;;;;;;;;;;;21.70;99.90;;;;;;4336407;33;44230;-84
2022/06/24 07:00:42;;;;;;;;;;;21.70;99.90;;;;;;4349459;33;44680;-85
2022/06/24 07:03:10;;;;;;;;;;;21.70;99.90;;;;;;4349296;33;44279;-83
2022/06/24 07:05:37;;;;;;;;;;;21.70;99.90;;;;;;4349171;33;42870;-85
2022/06/24 07:08:07;;;;;;;;;;;21.70;99.90;;;;;;4336618;33;44199;-78
2022/06/24 07:10:34;;;;;;;;;;;21.70;99.90;;;;;;4346905;33;42824;-82
2022/06/24 07:13:01;;;;;;;;;;;21.70;99.90;;;;;;4347271;33;45021;-80
2022/06/24 07:15:30;;;;;;;;;;;21.80;99.90;;;;;;4347250;33;43650;-81
2022/06/24 07:17:57;;;;;;;;;;;21.80;99.90;;;;;;4346888;33;42957;-80
2022/06/24 07:20:24;;;;;;;;;;;21.80;99.90;;;;;;4333767;33;42558;-80
2022/06/24 07:22:51;;;;;;;;;;;21.80;99.90;;;;;;4334008;33;44207;-81
2022/06/24 07:25:19;;;;;;;;;;;21.70;99.90;;;;;;4346885;33;44202;-80
2022/06/24 07:27:46;;;;;;;;;;;21.80;99.90;;;;;;4333996;33;43130;-82
2022/06/24 07:30:13;;;;;;;;;;;21.80;99.90;;;;;;4347028;33;44320;-81
2022/06/24 07:32:40;;;;;;;;;;;21.80;99.90;;;;;;4346744;33;43830;-84
2022/06/24 07:35:07;;;;;;;;;;;21.80;99.90;;;;;;4346916;33;43773;-83
2022/06/24 07:37:53;;;;;;;;;;;21.70;99.90;;;;;;4346713;33;45113;-80
2022/06/24 07:40:20;;;;;;;;;;;21.70;99.90;;;;;;4346560;33;43238;-83
2022/06/24 07:42:47;;;;;;;;;;;21.80;99.90;;;;;;4346783;33;46168;-81
2022/06/24 07:45:14;;;;;;;;;;;21.70;99.90;;;;;;4346963;33;42942;-81
2022/06/24 07:47:41;;;;;;;;;;;21.80;99.90;;;;;;4346284;33;45154;-84
2022/06/24 07:50:08;;;;;;;;;;;21.80;99.90;;;;;;4333328;33;43272;-81
2022/06/24 07:52:35;;;;;;;;;;;21.80;99.90;;;;;;4346674;33;42997;-80
2022/06/24 07:57:48;;;;;;;;;;;21.70;99.90;;;;;;4347142;33;43884;-84
2022/06/24 08:00:16;;;;;;;;;;;21.70;99.90;;;;;;4346761;33;43182;-82
2022/06/24 08:02:43;;;;;;;;;;;21.70;99.90;;;;;;4346022;33;44103;-82
2022/06/24 08:05:10;;;;;;;;;;;21.70;99.90;;;;;;4333169;33;42852;-83
2022/06/24 08:07:37;;;;;;;;;;;21.70;99.90;;;;;;4346149;33;42324;-79
2022/06/24 08:10:04;;;;;;;;;;;21.70;99.90;;;;;;4346253;33;44077;-82
2022/06/24 08:12:31;;;;;;;;;;;21.70;99.90;;;;;;4333386;33;43923;-82
2022/06/24 08:14:59;;;;;;;;;;;21.70;99.90;;;;;;4346017;33;44057;-83
2022/06/24 08:17:26;;;;;;;;;;;21.70;99.90;;;;;;4346446;33;43979;-81
2022/06/24 08:19:53;;;;;;;;;;;21.70;99.90;;;;;;4333103;33;44084;-81
2022/06/24 08:22:20;;;;;;;;;;;21.70;99.90;;;;;;4345909;33;43261;-81
2022/06/24 08:24:48;;;;;;;;;;;21.70;99.90;;;;;;4346606;33;43097;-82
2022/06/24 08:27:35;;;;;;;;;;;21.70;99.90;;;;;;4346326;33;46488;-80
2022/06/24 08:30:03;;;;;;;;;;;21.70;99.90;;;;;;4346170;33;42562;-81
2022/06/24 08:32:30;;;;;;;;;;;21.70;99.90;;;;;;4345874;33;43862;-83
2022/06/24 08:34:58;;;;;;;;;;;21.70;99.90;;;;;;4346175;33;43139;-81
2022/06/24 08:37:45;;;;;;;;;;;21.70;99.90;;;;;;4345708;33;45887;-80
2022/06/24 08:40:12;;;;;;;;;;;21.70;99.90;;;;;;4345926;33;42883;-84
2022/06/24 08:42:39;;;;;;;;;;;21.70;99.90;;;;;;4332352;33;42690;-81
2022/06/24 08:45:06;;;;;;;;;;;21.80;99.90;;;;;;4345608;33;43596;-81
2022/06/24 08:47:34;;;;;;;;;;;21.70;99.90;;;;;;4345466;33;43847;-80
2022/06/24 08:50:02;;;;;;;;;;;21.70;99.90;;;;;;4345788;33;44212;-80
2022/06/24 08:52:30;;;;;;;;;;;21.70;99.90;;;;;;4345663;33;44157;-80
2022/06/24 08:54:59;;;;;;;;;;;21.70;99.90;;;;;;4345775;33;42617;-81
2022/06/24 08:57:26;;;;;;;;;;;21.70;99.90;;;;;;4345721;33;42812;-81
2022/06/24 08:59:53;;;;;;;;;;;21.70;99.90;;;;;;4345978;33;43664;-81
2022/06/24 09:02:20;;;;;;;;;;;21.70;99.90;;;;;;4345365;33;44224;-83
2022/06/24 09:04:48;;;;;;;;;;;21.70;99.90;;;;;;4332678;33;43866;-80
2022/06/24 09:07:23;;;;;;;;;;;21.80;99.90;;;;;;4345206;33;43933;-78
2022/06/24 09:09:57;;;;;;;;;;;21.70;99.90;;;;;;4345904;33;44054;-79
2022/06/24 09:12:24;;;;;;;;;;;21.80;99.90;;;;;;4332586;33;43512;-80
2022/06/24 09:14:51;;;;;;;;;;;21.70;99.90;;;;;;4332411;33;43317;-77
2022/06/24 09:17:26;;;;;;;;;;;21.80;99.90;;;;;;4332057;33;43951;-77
2022/06/24 09:19:53;;;;;;;;;;;21.80;99.90;;;;;;4345350;33;42883;-77
2022/06/24 09:22:40;;;;;;;;;;;21.80;99.90;;;;;;4345655;33;44802;-80
2022/06/24 09:25:07;;;;;;;;;;;21.80;99.90;;;;;;4345705;33;43709;-78
2022/06/24 09:27:35;;;;;;;;;;;21.80;99.90;;;;;;4332246;33;43737;-78
2022/06/24 09:30:03;;;;;;;;;;;21.80;99.90;;;;;;4332200;33;45620;-78
2022/06/24 09:32:32;;;;;;;;;;;21.80;99.90;;;;;;4344887;33;43697;-78
2022/06/24 09:35:07;;;;;;;;;;;21.80;99.90;;;;;;4345628;33;43871;-79
2022/06/24 09:37:45;;;;;;;;;;;21.80;99.90;;;;;;4331727;33;43943;-80
2022/06/24 09:40:18;;;;;;;;;;;21.80;99.90;;;;;;4345004;33;43666;-79
2022/06/24 09:43:13;;;;;;;;;;;21.80;99.90;;;;;;4345406;33;43853;-80
2022/06/24 09:45:50;;;;;;;;;;;21.80;99.90;;;;;;4343585;33;42115;-82
2022/06/24 09:48:30;;;;;;;;;;;21.80;99.90;;;;;;4345313;33;43474;-80
2022/06/24 09:51:07;;;;;;;;;;;21.80;99.90;;;;;;4345524;33;43170;-82
2022/06/24 09:53:40;;;;;;;;;;;21.80;99.90;;;;;;4345271;33;43742;-79
2022/06/24 09:56:08;;;;;;;;;;;21.80;99.90;;;;;;4331698;33;42086;-83
2022/06/24 09:58:39;;;;;;;;;;;21.70;99.90;;;;;;4332136;33;43647;-80
2022/06/24 10:01:06;;;;;;;;;;;21.70;99.90;;;;;;4332024;33;44392;-79
2022/06/24 10:03:35;;;;;;;;;;;21.60;99.90;;;;;;4344846;33;45810;-81
2022/06/24 10:06:10;;;;;;;;;;;21.60;99.90;;;;;;4331389;33;45883;-79
2022/06/24 10:08:40;;;;;;;;;;;21.60;99.90;;;;;;4345231;33;44712;-81
2022/06/24 10:11:27;;;;;;;;;;;21.50;99.90;;;;;;4345210;33;45855;-82
2022/06/24 10:13:55;;;;;;;;;;;21.50;99.90;;;;;;4345272;33;43037;-81
2022/06/24 10:16:23;;;;;;;;;;;21.50;99.90;;;;;;4345205;33;45849;-81
2022/06/24 10:18:51;;;;;;;;;;;21.50;99.90;;;;;;4331555;33;42958;-81
2022/06/24 10:21:19;;;;;;;;;;;21.40;99.90;;;;;;4331933;33;44200;-83
2022/06/24 10:23:49;;;;;;;;;;;21.40;99.90;;;;;;4331983;33;43465;-82
2022/06/24 10:26:30;;;;;;;;;;;21.40;99.90;;;;;;4345008;33;43212;-83
2022/06/24 10:29:00;;;;;;;;;;;21.40;99.90;;;;;;4344994;33;44701;-83
2022/06/24 10:31:42;;;;;;;;;;;21.40;99.90;;;;;;4345010;33;43895;-83
2022/06/24 10:34:10;;;;;;;;;;;21.40;99.90;;;;;;4344974;33;43715;-82
2022/06/24 10:36:37;;;;;;;;;;;21.40;99.90;;;;;;4345019;33;43018;-84
2022/06/24 10:39:11;;;;;;;;;;;21.30;99.90;;;;;;4345137;33;43494;-84
2022/06/24 10:41:39;;;;;;;;;;;21.30;99.90;;;;;;4344541;33;44602;-84
2022/06/24 10:44:24;;;;;;;;;;;21.30;99.90;;;;;;4331380;33;42482;-85
2022/06/24 10:47:04;;;;;;;;;;;21.40;99.90;;;;;;4347171;33;42816;-84
2022/06/24 10:49:50;;;;;;;;;;;21.40;99.90;;;;;;4347298;33;42744;-85
2022/06/24 10:52:36;;;;;;;;;;;21.30;99.90;;;;;;4334590;33;43723;-85
2022/06/24 10:55:16;;;;;;;;;;;21.40;99.90;;;;;;4347086;33;43601;-84
2022/06/24 10:57:43;;;;;;;;;;;21.40;99.90;;;;;;4347864;33;43074;-82
2022/06/24 11:00:18;;;;;;;;;;;21.40;99.90;;;;;;4347772;33;43214;-84
2022/06/24 11:02:46;;;;;;;;;;;21.40;99.90;;;;;;4346969;33;42719;-81
2022/06/24 11:05:19;;;;;;;;;;;21.40;99.90;;;;;;4346379;33;42729;-81
2022/06/24 11:07:46;;;;;;;;;;;21.40;99.90;;;;;;4334206;33;42594;-80
2022/06/24 11:10:17;;;;;;;;;;;21.50;99.90;;;;;;4347011;33;44060;-79
2022/06/24 11:12:54;;;;;;;;;;;21.50;99.90;;;;;;4347010;33;42615;-79
2022/06/24 11:15:41;;;;;;;;;;;21.50;99.90;;;;;;4333724;33;44306;-80
2022/06/24 11:18:12;;;;;;;;;;;21.50;99.90;;;;;;4347287;33;42415;-80
2022/06/24 11:20:43;;;;;;;;;;;21.60;99.90;;;;;;4347520;33;44198;-80
2022/06/24 11:23:11;;;;;;;;;;;21.60;99.90;;;;;;4333506;33;43217;-78
2022/06/24 11:25:41;;;;;;;;;;;21.60;99.90;;;;;;4346936;33;43910;-80
2022/06/24 11:28:18;;;;;;;;;;;21.60;99.90;;;;;;4347264;33;43087;-84
2022/06/24 11:30:45;;;;;;;;;;;21.60;99.90;;;;;;4346714;33;42513;-82
2022/06/24 11:33:12;;;;;;;;;;;21.70;99.90;;;;;;4346645;33;43400;-82
2022/06/24 11:35:39;;;;;;;;;;;21.70;99.90;;;;;;4346569;33;44613;-80
2022/06/24 11:38:07;;;;;;;;;;;21.70;99.90;;;;;;4333726;33;44084;-81
2022/06/24 11:40:34;;;;;;;;;;;21.70;99.90;;;;;;4346540;33;44194;-79
2022/06/24 11:43:05;;;;;;;;;;;21.70;99.90;;;;;;4333572;33;44160;-79
2022/06/24 11:45:36;;;;;;;;;;;21.80;99.90;;;;;;4333701;33;43179;-81
2022/06/24 11:48:04;;;;;;;;;;;21.80;99.90;;;;;;4333800;33;43182;-81
2022/06/24 11:50:33;;;;;;;;;;;21.80;99.90;;;;;;4333308;33;43495;-80
2022/06/24 11:53:01;;;;;;;;;;;21.80;99.90;;;;;;4334464;33;19997;-82
2022/06/24 11:55:36;;;;;;;;;;;21.90;99.90;;;;;;4346600;33;43482;-80
2022/06/24 11:58:06;;;;;;;;;;;21.80;99.90;;;;;;4346403;33;43098;-83
2022/06/24 12:00:35;;;;;;;;;;;21.90;99.90;;;;;;4346891;33;43173;-81
2022/06/24 12:03:03;;;;;;;;;;;21.90;99.90;;;;;;4345048;33;43044;-82
2022/06/24 12:05:31;;;;;;;;;;;21.90;99.90;;;;;;4333229;33;43949;-81
2022/06/24 12:07:58;;;;;;;;;;;21.90;99.90;;;;;;4346593;33;43465;-81
2022/06/24 12:10:26;;;;;;;;;;;21.90;99.90;;;;;;4346531;33;43932;-80
2022/06/24 12:13:00;;;;;;;;;;;21.90;99.90;;;;;;4346959;33;43889;-80
2022/06/24 12:15:34;;;;;;;;;;;22.00;99.90;;;;;;4333368;33;45459;-81
2022/06/24 12:18:02;;;;;;;;;;;22.00;99.90;;;;;;4346541;33;43894;-80
2022/06/24 12:20:30;;;;;;;;;;;22.00;99.90;;;;;;4346290;33;42190;-81
2022/06/24 12:23:13;;;;;;;;;;;22.00;99.90;;;;;;4346196;33;44124;-81
2022/06/24 12:25:42;;;;;;;;;;;22.00;99.90;;;;;;4345892;33;42576;-82
2022/06/24 12:28:20;;;;;;;;;;;22.00;99.90;;;;;;4346044;33;43158;-81
2022/06/24 12:31:02;;;;;;;;;;;22.00;99.90;;;;;;4332986;33;44698;-86
2022/06/24 12:33:30;;;;;;;;;;;22.10;99.90;;;;;;4346294;33;43832;-79
2022/06/24 12:36:14;;;;;;;;;;;22.10;99.90;;;;;;4345899;33;43766;-82
2022/06/24 12:38:42;;;;;;;;;;;22.10;99.90;;;;;;4345535;33;42914;-81
2022/06/24 12:41:10;;;;;;;;;;;22.10;99.90;;;;;;4345755;33;43704;-82
2022/06/24 12:44:10;;;;;;;;;;;22.10;99.90;;;;;;4345873;33;44192;-78
2022/06/24 12:52:31;;;;;;;;;;;22.10;99.90;;;;;;4345878;33;44416;-82
2022/06/24 12:54:59;;;;;;;;;;;22.20;99.90;;;;;;4345547;33;42984;-81
2022/06/24 12:57:26;;;;;;;;;;;22.10;99.90;;;;;;4345850;33;43863;-82
2022/06/24 12:59:55;;;;;;;;;;;22.10;99.90;;;;;;4332255;33;42548;-80
2022/06/24 13:02:25;;;;;;;;;;;22.10;99.90;;;;;;4345512;33;44212;-82
2022/06/24 13:04:57;;;;;;;;;;;22.10;99.90;;;;;;4345419;33;43796;-82
2022/06/24 13:07:32;;;;;;;;;;;22.20;99.90;;;;;;4332939;33;44244;-80
2022/06/24 13:09:59;;;;;;;;;;;22.20;99.90;;;;;;4345576;33;42797;-80
2022/06/24 13:12:29;;;;;;;;;;;22.20;99.90;;;;;;4345297;33;42728;-80
2022/06/24 13:14:56;;;;;;;;;;;22.20;99.90;;;;;;4345215;33;42981;-82
2022/06/24 13:17:23;;;;;;;;;;;22.20;99.90;;;;;;4332392;33;43620;-84
2022/06/24 13:19:52;;;;;;;;;;;22.20;99.90;;;;;;4332046;33;43253;-83
2022/06/24 13:22:19;;;;;;;;;;;22.20;99.90;;;;;;4331996;33;42842;-82
2022/06/24 13:24:46;;;;;;;;;;;22.20;99.90;;;;;;4332219;33;42799;-81
2022/06/24 13:27:13;;;;;;;;;;;22.20;99.90;;;;;;4332159;33;45044;-81
2022/06/24 13:29:41;;;;;;;;;;;22.20;99.90;;;;;;4332261;33;43957;-82
2022/06/24 13:32:13;;;;;;;;;;;22.20;99.90;;;;;;4345078;33;44211;-81
2022/06/24 13:34:40;;;;;;;;;;;22.20;99.90;;;;;;4332120;33;43455;-80
2022/06/24 13:37:10;;;;;;;;;;;22.20;99.90;;;;;;4332250;33;43211;-82
2022/06/24 13:39:40;;;;;;;;;;;22.20;99.90;;;;;;4344965;33;43551;-80
2022/06/24 13:42:07;;;;;;;;;;;22.20;99.90;;;;;;4331686;33;43763;-81
2022/06/24 13:44:37;;;;;;;;;;;22.20;99.90;;;;;;4345546;33;42955;-84
2022/06/24 13:47:04;;;;;;;;;;;22.20;99.90;;;;;;4332128;33;43311;-80
2022/06/24 13:49:31;;;;;;;;;;;22.20;99.90;;;;;;4331632;33;43189;-79
2022/06/24 13:51:58;;;;;;;;;;;22.20;99.90;;;;;;4345304;33;43452;-78
2022/06/24 13:54:25;;;;;;;;;;;22.20;99.90;;;;;;4344872;33;43228;-77
2022/06/24 13:56:52;;;;;;;;;;;22.20;99.90;;;;;;4331545;33;44128;-78
2022/06/24 13:59:20;;;;;;;;;;;22.20;99.90;;;;;;4345191;33;44264;-79
2022/06/24 14:01:49;;;;;;;;;;;22.20;99.90;;;;;;4344653;33;43544;-80
2022/06/24 14:04:37;;;;;;;;;;;22.20;99.90;;;;;;4344399;33;44524;-77
2022/06/24 14:07:08;;;;;;;;;;;22.20;99.90;;;;;;4344697;33;42300;-79
2022/06/24 14:09:35;;;;;;;;;;;22.20;99.90;;;;;;4345967;33;20539;-79
2022/06/24 14:12:02;;;;;;;;;;;22.20;99.90;;;;;;4331557;33;44058;-78
2022/06/24 14:14:33;;;;;;;;;;;22.20;99.90;;;;;;4331779;33;43912;-80
2022/06/24 14:17:00;;;;;;;;;;;22.20;99.90;;;;;;4344605;33;43188;-79
2022/06/24 14:19:47;;;;;;;;;;;22.20;99.90;;;;;;4346613;33;45207;-81
2022/06/24 14:22:14;;;;;;;;;;;22.20;99.90;;;;;;4348075;33;43233;-78
2022/06/24 14:24:41;;;;;;;;;;;22.20;99.90;;;;;;4347762;33;42678;-80
2022/06/24 14:27:08;;;;;;;;;;;22.20;99.90;;;;;;4348076;33;43225;-77
2022/06/24 14:29:36;;;;;;;;;;;22.20;99.90;;;;;;4347450;33;43885;-79
2022/06/24 14:32:04;;;;;;;;;;;22.20;99.90;;;;;;4347983;33;43276;-80
2022/06/24 14:34:31;;;;;;;;;;;22.20;99.90;;;;;;4347432;33;43502;-79
2022/06/24 14:36:59;;;;;;;;;;;22.20;99.90;;;;;;4334388;33;44223;-79
2022/06/24 14:42:12;;;;;;;;;;;22.20;99.90;;;;;;4347943;33;43839;-80
2022/06/24 14:44:39;;;;;;;;;;;22.20;99.90;;;;;;4347365;33;43278;-80
2022/06/24 14:47:06;;;;;;;;;;;22.20;99.90;;;;;;4347722;33;43180;-80